Time;durP1;ratioP1;P1;durP2;ratioP2;P2;SDS_P1;SDS_P2;PMS_P1;PMS_P2;Temp;Humidity;BMP_temperature;BMP_pressure;BME280_temperature;BME280_humidity;BME280_pressure;Samples;Min_cycle;Max_cycle;Signal;HPM_P1;HPM_P2
2022/06/12 00:00:27;;;;;;;8.52;2.33;;;15.90;99.90;;;;;;5021068;28;20062;-71
2022/06/12 00:02:53;;;;;;;16.88;3.75;;;16.00;99.90;;;;;;5021390;28;20022;-67
2022/06/12 00:05:21;;;;;;;7.97;2.33;;;15.90;99.90;;;;;;5021809;28;20030;-67
2022/06/12 00:07:47;;;;;;;6.60;3.00;;;16.00;99.90;;;;;;5021529;28;20101;-67
2022/06/12 00:10:13;;;;;;;15.98;2.85;;;15.90;99.90;;;;;;5021586;28;20022;-68
2022/06/12 00:12:42;;;;;;;13.32;3.45;;;15.80;99.90;;;;;;5021385;28;20014;-68
2022/06/12 00:15:09;;;;;;;4.55;2.72;;;15.80;99.90;;;;;;5021526;28;20022;-68
2022/06/12 00:17:35;;;;;;;6.10;2.65;;;15.80;99.90;;;;;;5020755;28;20077;-68
2022/06/12 00:20:01;;;;;;;7.53;2.72;;;15.80;99.90;;;;;;5021654;28;21286;-69
2022/06/12 00:22:27;;;;;;;9.73;3.10;;;15.70;99.90;;;;;;5021398;28;20037;-68
2022/06/12 00:24:53;;;;;;;17.50;2.67;;;15.60;99.90;;;;;;5021623;28;20034;-68
2022/06/12 00:27:18;;;;;;;7.43;2.85;;;15.50;99.90;;;;;;5021844;28;20042;-68
2022/06/12 00:29:47;;;;;;;9.13;2.75;;;15.50;99.90;;;;;;5021613;28;20045;-69
2022/06/12 00:32:16;;;;;;;7.20;2.47;;;15.40;99.90;;;;;;5020867;28;20459;-67
2022/06/12 00:34:50;;;;;;;8.50;2.55;;;15.30;99.90;;;;;;5021099;28;20085;-67
2022/06/12 00:37:18;;;;;;;;;;;15.20;99.90;;;;;;5021788;28;20030;-69
2022/06/12 00:39:45;;;;;;;11.05;3.22;;;15.20;99.90;;;;;;5021493;28;19905;-69
2022/06/12 00:42:25;;;;;;;10.57;3.35;;;15.20;99.90;;;;;;5021097;28;20430;-67
2022/06/12 00:44:52;;;;;;;11.40;2.80;;;15.10;99.90;;;;;;5021238;28;20030;-69
2022/06/12 00:47:18;;;;;;;5.82;2.78;;;15.10;99.90;;;;;;5021609;28;20038;-69
2022/06/12 00:49:59;;;;;;;6.97;2.72;;;15.10;99.90;;;;;;5021443;28;20061;-68
2022/06/12 00:52:32;;;;;;;10.65;3.38;;;15.10;99.90;;;;;;5020753;28;20026;-69
2022/06/12 00:55:05;;;;;;;7.95;2.60;;;15.10;99.90;;;;;;5021219;28;20018;-67
2022/06/12 00:57:30;;;;;;;8.70;2.28;;;15.10;99.90;;;;;;5020667;28;20022;-68
2022/06/12 01:00:03;;;;;;;4.25;2.60;;;15.00;99.90;;;;;;5021138;28;21140;-68
2022/06/12 01:02:33;;;;;;;5.63;3.00;;;15.00;99.90;;;;;;5021296;28;20018;-68
2022/06/12 01:07:50;;;;;;;12.70;2.90;;;15.00;99.90;;;;;;5020834;28;20174;-67
2022/06/12 01:10:18;;;;;;;5.80;2.63;;;15.10;99.90;;;;;;5024280;28;20045;-69
2022/06/12 01:12:57;;;;;;;5.20;2.08;;;15.00;99.90;;;;;;5024549;28;20021;-66
2022/06/12 01:15:29;;;;;;;8.43;2.50;;;15.00;99.90;;;;;;5024515;28;20056;-70
2022/06/12 01:17:57;;;;;;;9.48;2.33;;;15.00;99.90;;;;;;5024118;28;20038;-67
2022/06/12 01:20:27;;;;;;;8.15;2.10;;;15.00;99.90;;;;;;5024570;28;20497;-66
2022/06/12 01:23:19;;;;;;;16.67;2.60;;;14.90;99.90;;;;;;5024542;28;20108;-67
2022/06/12 01:26:08;;;;;;;8.68;3.13;;;15.00;99.90;;;;;;5024404;28;20379;-66
2022/06/12 01:28:53;;;;;;;9.00;2.05;;;15.00;99.90;;;;;;5024371;28;20049;-68
2022/06/12 01:32:00;;;;;;;10.88;2.95;;;15.00;99.90;;;;;;5024673;28;20040;-68
2022/06/12 01:34:48;;;;;;;9.45;2.70;;;14.90;99.90;;;;;;4975246;28;20042;-68
2022/06/12 01:37:41;;;;;;;12.05;2.97;;;15.00;99.90;;;;;;5024726;28;20026;-66
2022/06/12 01:40:36;;;;;;;6.80;3.03;;;14.90;99.90;;;;;;5024324;28;20490;-67
2022/06/12 01:43:19;;;;;;;;;;;14.80;99.90;;;;;;5024514;28;20056;-68
2022/06/12 01:46:01;;;;;;;7.30;1.77;;;14.70;99.90;;;;;;5024266;28;19913;-67
2022/06/12 01:48:37;;;;;;;7.13;2.10;;;14.70;99.90;;;;;;5023478;28;20116;-67
2022/06/12 01:51:29;;;;;;;9.20;2.13;;;14.70;99.90;;;;;;5023861;28;20041;-67
2022/06/12 01:54:04;;;;;;;4.72;1.80;;;14.70;99.90;;;;;;5016832;28;20061;-66
2022/06/12 01:56:59;;;;;;;27.50;2.42;;;14.60;99.90;;;;;;5023685;28;20026;-68
2022/06/12 01:59:43;;;;;;;;;;;14.60;99.90;;;;;;5024227;28;20072;-67
2022/06/12 02:02:17;;;;;;;4.88;2.20;;;14.60;99.90;;;;;;5023417;28;19918;-67
2022/06/12 02:04:58;;;;;;;8.20;2.97;;;14.50;99.90;;;;;;5005697;28;20029;-67
2022/06/12 02:07:29;;;;;;;8.02;2.95;;;14.40;99.90;;;;;;5023692;28;20040;-68
2022/06/12 02:10:25;;;;;;;4.10;2.17;;;14.40;99.90;;;;;;5023909;28;20471;-67
2022/06/12 02:13:14;;;;;;;6.93;2.33;;;14.40;99.90;;;;;;5023657;28;20076;-67
2022/06/12 02:16:02;;;;;;;10.63;2.90;;;14.40;99.90;;;;;;5022851;28;20037;-66
2022/06/12 02:18:45;;;;;;;12.25;2.33;;;14.40;99.90;;;;;;5023387;28;20046;-68
2022/06/12 02:21:25;;;;;;;3.25;1.35;;;14.30;99.90;;;;;;5022147;28;20034;-68
2022/06/12 02:23:54;;;;;;;3.67;1.95;;;14.30;99.90;;;;;;5022916;28;20018;-69
2022/06/12 02:26:25;;;;;;;5.93;1.73;;;14.20;99.90;;;;;;5023315;28;20061;-66
2022/06/12 02:28:59;;;;;;;3.17;1.75;;;14.20;99.90;;;;;;5023332;28;20471;-68
2022/06/12 02:31:31;;;;;;;4.53;1.85;;;14.10;99.90;;;;;;5023014;28;20022;-66
2022/06/12 02:34:06;;;;;;;6.00;1.80;;;14.00;99.90;;;;;;5023062;28;20022;-68
2022/06/12 02:36:38;;;;;;;5.70;1.67;;;14.10;99.90;;;;;;5022780;28;20113;-67
2022/06/12 02:39:26;;;;;;;9.80;1.98;;;14.10;99.90;;;;;;5023195;28;20052;-68
2022/06/12 02:42:07;;;;;;;5.32;1.92;;;14.00;99.90;;;;;;5023303;28;20105;-66
2022/06/12 02:44:42;;;;;;;3.17;1.52;;;14.00;99.90;;;;;;5022773;28;20509;-66
2022/06/12 02:47:15;;;;;;;9.32;2.88;;;14.00;99.90;;;;;;5022756;28;20030;-67
2022/06/12 02:49:44;;;;;;;9.27;1.70;;;14.00;99.90;;;;;;5022553;28;20045;-66
2022/06/12 02:52:40;;;;;;;1.73;1.10;;;13.90;99.90;;;;;;5022504;28;20029;-65
2022/06/12 02:55:22;;;;;;;3.40;1.67;;;13.90;99.90;;;;;;5022991;28;20030;-66
2022/06/12 02:58:06;;;;;;;3.30;1.60;;;13.90;99.90;;;;;;5022372;28;20026;-68
2022/06/12 03:00:35;;;;;;;7.00;1.98;;;13.90;99.90;;;;;;5022551;28;20025;-68
2022/06/12 03:03:13;;;;;;;3.75;1.50;;;13.90;99.90;;;;;;5022236;28;20025;-67
2022/06/12 03:05:41;;;;;;;7.70;1.67;;;13.90;99.90;;;;;;5022401;28;20025;-65
2022/06/12 03:08:15;;;;;;;4.70;1.63;;;13.90;99.90;;;;;;5022044;28;20034;-65
2022/06/12 03:10:47;;;;;;;2.60;1.55;;;13.90;99.90;;;;;;5022060;28;20033;-66
2022/06/12 03:13:14;;;;;;;2.17;1.13;;;13.80;99.90;;;;;;5022573;28;20018;-67
2022/06/12 03:15:51;;;;;;;4.38;2.00;;;13.90;99.90;;;;;;5022027;28;20030;-67
2022/06/12 03:18:31;;;;;;;5.38;1.77;;;13.80;99.90;;;;;;5021761;28;20054;-67
2022/06/12 03:21:16;;;;;;;10.20;2.15;;;13.90;99.90;;;;;;5022469;28;20113;-66
2022/06/12 03:23:47;;;;;;;6.22;1.58;;;13.90;99.90;;;;;;5022389;28;20029;-68
2022/06/12 03:26:34;;;;;;;8.18;1.95;;;13.90;99.90;;;;;;5021742;28;20026;-66
2022/06/12 03:29:21;;;;;;;3.30;1.60;;;13.90;99.90;;;;;;5022312;28;20117;-68
2022/06/12 03:32:06;;;;;;;6.03;2.45;;;13.90;99.90;;;;;;5021949;28;20026;-65
2022/06/12 03:34:49;;;;;;;10.90;2.17;;;14.00;99.90;;;;;;5021786;28;20030;-66
2022/06/12 03:37:26;;;;;;;7.05;2.20;;;13.90;99.90;;;;;;5021958;28;20038;-67
2022/06/12 03:40:01;;;;;;;5.57;1.70;;;13.90;99.90;;;;;;5022026;28;20086;-67
2022/06/12 03:42:36;;;;;;;5.13;1.80;;;13.90;99.90;;;;;;5021752;28;20041;-67
2022/06/12 03:45:09;;;;;;;10.40;2.72;;;13.90;99.90;;;;;;5021820;28;20034;-66
2022/06/12 03:47:40;;;;;;;4.53;1.70;;;13.90;99.90;;;;;;5021634;28;20127;-65
2022/06/12 03:50:17;;;;;;;2.60;1.90;;;13.90;99.90;;;;;;5021844;28;20026;-68
2022/06/12 03:52:48;;;;;;;2.25;1.67;;;13.90;99.90;;;;;;5021257;28;20037;-65
2022/06/12 03:58:21;;;;;;;3.17;1.92;;;13.90;99.90;;;;;;5021880;28;20073;-67
2022/06/12 04:00:49;;;;;;;2.35;1.38;;;13.90;99.90;;;;;;5021880;28;20034;-66
2022/06/12 04:03:29;;;;;;;4.78;2.03;;;13.90;99.90;;;;;;5021883;28;20033;-66
2022/06/12 04:05:59;;;;;;;4.35;1.80;;;13.90;99.90;;;;;;5021400;28;20036;-68
2022/06/12 04:08:38;;;;;;;8.32;2.13;;;13.90;99.90;;;;;;5021509;28;20084;-67
2022/06/12 04:11:07;;;;;;;4.22;1.45;;;14.00;99.90;;;;;;5021769;28;20048;-67
2022/06/12 04:13:37;;;;;;;3.28;1.52;;;13.90;99.90;;;;;;5021022;28;20046;-66
2022/06/12 04:16:24;;;;;;;6.10;3.10;;;14.10;99.90;;;;;;5021583;28;20030;-67
2022/06/12 04:18:50;;;;;;;6.03;1.65;;;14.10;99.90;;;;;;4980317;28;20058;-68
2022/06/12 04:21:41;;;;;;;2.97;1.35;;;14.10;99.90;;;;;;4981712;28;20030;-67
2022/06/12 04:24:16;;;;;;;5.45;2.13;;;14.20;99.90;;;;;;4982612;28;20070;-68
2022/06/12 04:27:06;;;;;;;5.93;1.83;;;14.30;99.90;;;;;;4982063;28;20125;-68
2022/06/12 04:29:36;;;;;;;6.65;1.70;;;14.30;99.90;;;;;;4974997;28;20109;-68
2022/06/12 04:32:04;;;;;;;3.03;1.42;;;14.40;99.90;;;;;;4982623;28;20018;-67
2022/06/12 04:34:32;;;;;;;4.25;1.80;;;14.40;99.90;;;;;;4980645;28;20019;-68
2022/06/12 04:37:03;;;;;;;2.72;1.50;;;14.50;99.90;;;;;;4982033;28;20030;-68
2022/06/12 04:39:32;;;;;;;7.60;2.55;;;14.50;99.90;;;;;;4981066;28;20395;-67
2022/06/12 04:42:00;;;;;;;2.63;1.67;;;14.50;99.90;;;;;;4980933;28;20085;-69
2022/06/12 04:44:26;;;;;;;2.53;1.90;;;14.60;99.90;;;;;;4983949;28;20133;-68
2022/06/12 04:46:54;;;;;;;3.65;2.10;;;14.50;99.90;;;;;;4985986;28;20479;-69
2022/06/12 04:49:25;;;;;;;5.30;1.85;;;14.60;99.90;;;;;;4986324;28;20042;-69
2022/06/12 04:51:54;;;;;;;9.25;2.17;;;14.50;99.90;;;;;;4985621;28;20031;-67
2022/06/12 04:54:21;;;;;;;9.68;1.90;;;14.50;99.90;;;;;;4985669;28;20033;-68
2022/06/12 04:56:48;;;;;;;7.20;2.05;;;14.50;99.90;;;;;;4986056;28;20138;-68
2022/06/12 04:59:16;;;;;;;5.30;2.10;;;14.60;99.90;;;;;;4986020;28;20527;-67
2022/06/12 05:01:42;;;;;;;14.90;2.60;;;14.70;99.90;;;;;;4985694;28;20069;-67
2022/06/12 05:04:08;;;;;;;4.65;2.08;;;14.60;99.90;;;;;;4985407;28;20033;-67
2022/06/12 05:06:36;;;;;;;4.50;1.40;;;14.60;99.90;;;;;;4984252;28;20093;-67
2022/06/12 05:09:02;;;;;;;8.00;2.03;;;14.70;99.90;;;;;;4985311;28;20458;-68
2022/06/12 05:11:28;;;;;;;2.05;1.27;;;14.70;99.90;;;;;;4985279;28;20050;-68
2022/06/12 05:13:54;;;;;;;2.85;1.63;;;14.70;99.90;;;;;;4985929;28;20027;-70
2022/06/12 05:17:00;;;;;;;6.50;2.05;;;14.80;99.90;;;;;;4988941;28;20093;-68
2022/06/12 05:19:29;;;;;;;12.18;2.22;;;14.80;99.90;;;;;;5013895;28;20054;-68
2022/06/12 05:21:56;;;;;;;5.25;2.05;;;15.00;99.90;;;;;;5023529;28;20057;-66
2022/06/12 05:24:22;;;;;;;11.52;1.88;;;14.90;99.90;;;;;;5005497;28;20470;-68
2022/06/12 05:26:49;;;;;;;14.80;2.08;;;15.00;99.90;;;;;;5024663;28;20172;-67
2022/06/12 05:29:21;;;;;;;3.20;1.50;;;15.10;99.90;;;;;;5024305;28;20025;-66
2022/06/12 05:31:46;;;;;;;4.22;1.88;;;15.10;99.90;;;;;;5022760;28;20055;-66
2022/06/12 05:34:13;;;;;;;1.98;1.10;;;15.20;99.90;;;;;;5024481;28;20135;-69
2022/06/12 05:36:39;;;;;;;4.75;1.40;;;15.20;99.90;;;;;;5023491;28;20040;-68
2022/06/12 05:39:04;;;;;;;5.13;1.67;;;15.40;99.90;;;;;;5021397;28;20049;-67
2022/06/12 05:41:30;;;;;;;2.35;1.50;;;15.40;99.90;;;;;;5023510;28;20045;-67
2022/06/12 05:43:57;;;;;;;6.35;1.63;;;15.50;99.90;;;;;;5023269;28;20538;-67
2022/06/12 05:46:22;;;;;;;10.18;2.38;;;15.50;99.90;;;;;;5017020;28;20036;-67
2022/06/12 05:48:48;;;;;;;3.50;1.65;;;15.60;99.90;;;;;;5017917;28;20094;-69
2022/06/12 05:51:17;;;;;;;3.05;1.30;;;15.70;99.90;;;;;;5023031;28;20061;-69
2022/06/12 05:53:42;;;;;;;3.35;1.65;;;15.70;99.90;;;;;;5006104;28;20034;-69
2022/06/12 05:56:11;;;;;;;7.85;1.20;;;15.80;99.90;;;;;;5024156;28;20053;-67
2022/06/12 05:58:37;;;;;;;2.60;1.35;;;16.00;99.90;;;;;;5023266;28;20026;-69
2022/06/12 06:01:06;;;;;;;2.33;1.35;;;16.00;99.90;;;;;;5023293;28;20061;-66
2022/06/12 06:03:32;;;;;;;3.80;1.65;;;16.10;99.90;;;;;;5023073;28;20034;-67
2022/06/12 06:05:58;;;;;;;4.03;1.67;;;16.10;99.90;;;;;;5023174;28;20038;-71
2022/06/12 06:08:24;;;;;;;4.20;1.80;;;16.30;99.90;;;;;;5022194;28;20026;-69
2022/06/12 06:10:50;;;;;;;6.35;1.58;;;16.30;99.90;;;;;;5022343;28;20032;-69
2022/06/12 06:13:16;;;;;;;2.15;1.02;;;16.40;99.90;;;;;;5019939;28;20037;-68
2022/06/12 06:15:42;;;;;;;3.70;1.35;;;16.40;99.90;;;;;;5022805;28;20089;-69
2022/06/12 06:18:09;;;;;;;1.75;1.17;;;16.50;99.90;;;;;;5021271;28;20049;-69
2022/06/12 06:20:37;;;;;;;8.93;1.67;;;16.60;99.90;;;;;;5022315;28;20037;-69
2022/06/12 06:23:03;;;;;;;0.85;0.65;;;16.70;99.90;;;;;;5023217;28;20022;-68
2022/06/12 06:25:29;;;;;;;5.00;1.20;;;16.70;99.90;;;;;;5023240;28;20030;-70
2022/06/12 06:27:56;;;;;;;2.78;1.10;;;16.80;99.90;;;;;;5023490;28;20033;-67
2022/06/12 06:30:24;;;;;;;4.63;0.85;;;16.90;99.90;;;;;;5020384;28;20042;-70
2022/06/12 06:32:51;;;;;;;3.75;1.45;;;17.00;99.90;;;;;;5022482;28;20057;-68
2022/06/12 06:35:17;;;;;;;2.58;1.10;;;17.10;99.90;;;;;;5023113;28;20391;-68
2022/06/12 06:37:44;;;;;;;2.78;1.25;;;17.20;99.90;;;;;;5023034;28;20093;-68
2022/06/12 06:40:12;;;;;;;2.28;1.00;;;17.30;99.90;;;;;;5021885;28;20060;-70
2022/06/12 06:42:38;;;;;;;1.67;0.80;;;17.30;99.90;;;;;;5022320;28;20057;-68
2022/06/12 06:47:49;;;;;;;2.55;1.08;;;17.50;99.90;;;;;;5022909;28;20097;-70
2022/06/12 06:50:17;;;;;;;1.38;1.23;;;17.60;99.90;;;;;;5023051;28;20030;-71
2022/06/12 06:52:42;;;;;;;4.45;0.93;;;17.60;99.90;;;;;;5021637;28;20061;-68
2022/06/12 06:55:09;;;;;;;1.42;0.80;;;17.70;99.90;;;;;;5022849;28;20026;-69
2022/06/12 06:57:37;;;;;;;6.38;1.38;;;17.80;99.90;;;;;;5022888;28;20033;-70
2022/06/12 07:00:05;;;;;;;2.75;1.00;;;17.80;99.90;;;;;;5022451;28;20374;-69
2022/06/12 07:02:31;;;;;;;4.78;1.83;;;17.90;99.90;;;;;;5022776;28;20029;-70
2022/06/12 07:04:58;;;;;;;5.13;1.67;;;17.90;99.90;;;;;;5022563;28;20041;-68
2022/06/12 07:07:24;;;;;;;2.50;1.58;;;18.00;99.90;;;;;;5021835;28;20037;-71
2022/06/12 07:09:50;;;;;;;2.95;1.30;;;18.10;99.90;;;;;;5005402;28;20048;-69
2022/06/12 07:12:15;;;;;;;3.05;1.30;;;18.10;99.90;;;;;;5022878;28;20033;-70
2022/06/12 07:14:41;;;;;;;2.03;1.15;;;18.20;99.90;;;;;;5019905;28;20030;-71
2022/06/12 07:17:07;;;;;;;3.65;1.48;;;18.20;99.90;;;;;;5017622;28;20179;-70
2022/06/12 07:19:33;;;;;;;1.77;1.05;;;18.40;99.90;;;;;;5020359;28;20084;-72
2022/06/12 07:21:59;;;;;;;2.20;1.27;;;18.40;99.90;;;;;;5022341;28;20447;-69
2022/06/12 07:24:25;;;;;;;1.60;0.77;;;18.50;99.90;;;;;;5022539;28;20053;-69
2022/06/12 07:26:51;;;;;;;3.75;0.80;;;18.60;99.90;;;;;;5022029;28;20478;-69
2022/06/12 07:29:21;;;;;;;1.63;0.95;;;18.70;99.90;;;;;;5020582;28;20034;-71
2022/06/12 07:31:47;;;;;;;1.92;0.88;;;18.70;99.90;;;;;;5021822;28;20121;-72
2022/06/12 07:34:14;;;;;;;1.52;0.90;;;18.80;99.90;;;;;;5020389;28;20034;-71
2022/06/12 07:36:41;;;;;;;16.77;1.67;;;18.90;99.90;;;;;;5022198;28;20034;-71
2022/06/12 07:39:12;;;;;;;3.67;0.63;;;19.00;99.90;;;;;;5021585;28;20057;-70
2022/06/12 07:41:38;;;;;;;4.50;0.98;;;19.00;99.90;;;;;;5018991;28;20092;-70
2022/06/12 07:44:05;;;;;;;1.95;0.88;;;19.00;99.90;;;;;;5019392;28;20970;-69
2022/06/12 07:46:31;;;;;;;1.45;0.73;;;19.20;99.90;;;;;;5019558;28;20038;-71
2022/06/12 07:48:58;;;;;;;3.45;0.98;;;19.20;99.90;;;;;;5002776;28;20026;-68
2022/06/12 07:51:24;;;;;;;0.93;0.57;;;19.30;99.90;;;;;;5021271;28;20045;-70
2022/06/12 07:53:52;;;;;;;0.75;0.65;;;19.30;99.90;;;;;;5021882;28;20036;-70
2022/06/12 07:56:19;;;;;;;0.98;0.70;;;19.40;99.90;;;;;;5019749;28;20033;-71
2022/06/12 07:58:45;;;;;;;10.60;1.25;;;19.50;99.90;;;;;;5003936;28;20061;-69
2022/06/12 08:01:14;;;;;;;0.90;0.80;;;19.50;99.90;;;;;;5021639;28;20022;-68
2022/06/12 08:03:40;;;;;;;1.17;0.80;;;19.50;99.90;;;;;;5003755;28;20075;-70
2022/06/12 08:06:06;;;;;;;4.18;0.80;;;19.50;99.90;;;;;;5021944;28;20045;-68
2022/06/12 08:08:33;;;;;;;1.13;0.80;;;19.50;99.90;;;;;;5020707;28;20048;-68
2022/06/12 08:11:01;;;;;;;3.22;0.95;;;19.50;99.90;;;;;;5021485;28;20014;-70
2022/06/12 08:13:27;;;;;;;2.22;1.10;;;19.50;99.90;;;;;;5004001;28;20049;-69
2022/06/12 08:15:54;;;;;;;1.30;0.85;;;19.60;99.90;;;;;;5021424;28;20106;-68
2022/06/12 08:18:20;;;;;;;3.40;0.70;;;19.60;99.90;;;;;;5019752;28;20058;-68
2022/06/12 08:20:52;;;;;;;4.97;0.80;;;19.80;99.90;;;;;;5021080;28;20018;-69
2022/06/12 08:23:29;;;;;;;1.02;0.50;;;19.80;99.90;;;;;;5021410;28;20026;-69
2022/06/12 08:26:18;;;;;;;1.02;0.60;;;19.90;99.90;;;;;;5021255;28;20025;-66
2022/06/12 08:29:06;;;;;;;2.65;0.85;;;20.00;99.90;;;;;;5020593;28;20057;-71
2022/06/12 08:31:37;;;;;;;2.30;0.60;;;20.10;99.90;;;;;;5019554;28;20659;-68
2022/06/12 08:34:06;;;;;;;2.25;1.13;;;20.20;99.90;;;;;;5020958;28;20502;-67
2022/06/12 08:36:32;;;;;;;0.85;0.65;;;20.30;99.90;;;;;;5021227;28;20109;-69
2022/06/12 08:39:00;;;;;;;1.63;0.95;;;20.30;99.90;;;;;;5019148;28;20030;-69
2022/06/12 08:41:31;;;;;;;1.30;0.52;;;20.30;99.90;;;;;;5020945;28;20025;-70
2022/06/12 08:44:26;;;;;;;1.73;0.65;;;20.40;99.90;;;;;;5020727;28;20107;-70
2022/06/12 08:47:02;;;;;;;2.72;0.77;;;20.40;99.90;;;;;;4997645;28;20072;-71
2022/06/12 08:49:51;;;;;;;3.75;0.88;;;20.60;99.90;;;;;;5016474;28;20022;-74
2022/06/12 08:52:54;;;;;;;1.88;0.80;;;20.60;99.90;;;;;;5019620;28;20495;-69
2022/06/12 08:55:36;;;;;;;0.40;0.30;;;20.70;99.90;;;;;;5020268;28;20505;-68
2022/06/12 08:58:15;;;;;;;1.40;0.88;;;20.80;99.90;;;;;;5020289;28;20049;-69
2022/06/12 09:00:40;;;;;;;1.17;0.85;;;20.80;99.90;;;;;;5018131;28;20030;-70
2022/06/12 09:03:11;;;;;;;0.90;0.50;;;20.90;99.90;;;;;;5019875;28;20087;-70
2022/06/12 09:05:41;;;;;;;3.30;0.57;;;21.00;99.90;;;;;;5019875;28;20030;-69
2022/06/12 09:08:20;;;;;;;0.60;0.50;;;21.10;99.90;;;;;;5020087;28;20038;-68
2022/06/12 09:10:52;;;;;;;0.95;0.60;;;21.10;99.90;;;;;;5017677;28;20033;-71
2022/06/12 09:13:33;;;;;;;4.18;1.08;;;21.20;99.90;;;;;;5019851;28;20423;-68
2022/06/12 09:16:22;;;;;;;1.95;1.25;;;21.20;99.90;;;;;;5020759;28;20053;-74
2022/06/12 09:19:21;;;;;;;2.05;1.05;;;21.30;99.90;;;;;;5017455;28;20045;-70
2022/06/12 09:22:41;;;;;;;3.75;0.68;;;21.30;99.90;;;;;;4985202;28;20104;-69
2022/06/12 09:25:23;;;;;;;2.45;0.82;;;21.40;99.90;;;;;;5020380;28;20030;-70
2022/06/12 09:27:52;;;;;;;3.08;0.82;;;21.60;99.90;;;;;;5020386;28;20093;-71
2022/06/12 09:30:25;;;;;;;5.03;0.98;;;21.70;99.90;;;;;;5021671;28;20042;-69
2022/06/12 09:33:14;;;;;;;1.30;0.63;;;21.80;99.90;;;;;;5024089;28;20030;-71
2022/06/12 09:36:16;;;;;;;1.05;0.73;;;21.80;99.90;;;;;;5006088;28;20045;-69
2022/06/12 09:38:47;;;;;;;1.52;0.80;;;21.90;99.90;;;;;;5017971;28;20038;-75
2022/06/12 09:41:34;;;;;;;0.40;0.30;;;22.00;99.90;;;;;;5023610;28;20030;-75
2022/06/12 09:44:18;;;;;;;1.50;0.57;;;22.00;99.90;;;;;;5006549;28;20065;-72
2022/06/12 09:46:59;;;;;;;3.90;0.68;;;22.00;99.90;;;;;;5023140;28;20042;-70
2022/06/12 09:49:40;;;;;;;1.08;0.70;;;22.10;99.90;;;;;;5023579;28;20378;-70
2022/06/12 09:52:20;;;;;;;5.93;1.42;;;22.00;99.90;;;;;;5023174;28;20041;-68
2022/06/12 09:55:05;;;;;;;1.60;0.95;;;22.10;99.90;;;;;;5023489;28;20041;-68
2022/06/12 09:57:57;;;;;;;2.15;0.93;;;22.00;99.90;;;;;;5005915;28;20053;-68
2022/06/12 10:00:32;;;;;;;1.52;0.65;;;22.10;99.90;;;;;;5023973;28;20022;-70
2022/06/12 10:03:07;;;;;;;7.32;0.88;;;22.10;99.90;;;;;;5005625;28;20026;-70
2022/06/12 10:09:12;;;;;;;2.97;0.80;;;22.20;99.90;;;;;;5021770;28;20045;-71
2022/06/12 10:11:59;;;;;;;3.10;1.03;;;22.30;99.90;;;;;;5017072;28;20064;-71
2022/06/12 10:14:36;;;;;;;2.55;1.02;;;22.50;99.90;;;;;;5020385;28;20026;-69
2022/06/12 10:17:32;;;;;;;4.13;1.25;;;22.70;99.90;;;;;;5022907;28;20057;-71
2022/06/12 10:20:12;;;;;;;2.63;1.25;;;22.70;99.90;;;;;;5021635;28;20045;-70
2022/06/12 10:22:43;;;;;;;1.95;1.02;;;22.70;99.90;;;;;;5021892;28;20037;-69
2022/06/12 10:25:18;;;;;;;1.30;0.65;;;22.80;99.90;;;;;;5005237;28;21031;-70
2022/06/12 10:27:49;;;;;;;0.88;0.60;;;22.80;99.90;;;;;;5022999;28;20037;-69
2022/06/12 10:30:33;;;;;;;8.77;0.90;;;22.90;99.90;;;;;;5022442;28;20038;-69
2022/06/12 10:33:28;;;;;;;4.28;0.75;;;23.00;99.90;;;;;;5019688;28;20018;-74
2022/06/12 10:36:00;;;;;;;3.78;0.82;;;23.20;99.90;;;;;;5020586;28;20627;-70
2022/06/12 10:38:31;;;;;;;3.28;1.02;;;23.10;99.90;;;;;;5022856;28;20079;-71
2022/06/12 10:41:02;;;;;;;3.65;1.02;;;23.00;99.90;;;;;;5021769;28;20447;-68
2022/06/12 10:43:43;;;;;;;2.80;0.77;;;23.10;99.90;;;;;;5022333;28;20034;-68
2022/06/12 10:46:15;;;;;;;5.10;1.02;;;23.10;99.90;;;;;;5023121;28;20036;-70
2022/06/12 10:48:42;;;;;;;2.80;0.70;;;22.90;99.90;;;;;;5022772;28;20038;-70
2022/06/12 10:51:26;;;;;;;1.00;0.90;;;22.80;99.90;;;;;;5022227;28;20041;-68
2022/06/12 10:54:13;;;;;;;3.70;0.85;;;22.80;99.90;;;;;;5005362;28;20113;-70
2022/06/12 10:56:42;;;;;;;2.50;0.90;;;22.80;99.90;;;;;;5021955;28;20069;-68
2022/06/12 10:59:33;;;;;;;1.20;0.70;;;22.70;99.90;;;;;;5021223;28;20037;-68
2022/06/12 11:02:36;;;;;;;1.70;0.70;;;22.50;99.90;;;;;;5021975;28;20026;-75
2022/06/12 11:05:39;;;;;;;3.45;1.25;;;22.60;99.90;;;;;;5021307;28;20094;-69
2022/06/12 11:08:33;;;;;;;1.50;0.70;;;22.60;99.90;;;;;;5022166;28;20022;-69
2022/06/12 11:11:21;;;;;;;2.58;0.68;;;22.50;99.90;;;;;;5021969;28;20056;-67
2022/06/12 11:14:14;;;;;;;3.63;0.98;;;22.40;99.90;;;;;;5022222;28;20383;-71
2022/06/12 11:16:58;;;;;;;2.28;1.05;;;22.20;99.90;;;;;;5021876;28;20521;-68
2022/06/12 11:19:27;;;;;;;2.42;0.93;;;22.10;99.90;;;;;;5021619;28;20121;-70
2022/06/12 11:22:16;;;;;;;0.70;0.50;;;22.00;99.90;;;;;;5004688;28;20120;-69
2022/06/12 11:25:29;;;;;;;2.72;1.08;;;22.00;99.90;;;;;;5021878;28;20573;-68
2022/06/12 11:28:04;;;;;;;2.00;0.98;;;22.40;99.90;;;;;;4994052;28;20042;-70
2022/06/12 11:31:02;;;;;;;1.08;0.70;;;22.40;99.90;;;;;;5021418;28;20029;-68
2022/06/12 11:33:47;;;;;;;9.40;1.23;;;22.40;99.90;;;;;;5020937;28;20040;-71
2022/06/12 11:36:37;;;;;;;1.40;0.68;;;22.40;99.90;;;;;;5014237;28;20038;-68
2022/06/12 11:39:27;;;;;;;3.05;0.90;;;22.40;99.90;;;;;;5021827;28;20522;-68
2022/06/12 11:42:05;;;;;;;0.82;0.63;;;22.70;99.90;;;;;;5021723;28;20366;-68
2022/06/12 11:44:49;;;;;;;1.05;0.73;;;23.10;99.90;;;;;;5021313;28;20030;-70
2022/06/12 11:47:21;;;;;;;2.97;0.85;;;23.40;99.90;;;;;;5004197;28;20048;-71
2022/06/12 11:50:00;;;;;;;4.75;0.90;;;23.40;99.90;;;;;;5020002;28;20030;-72
2022/06/12 11:52:55;;;;;;;4.13;1.10;;;23.30;99.90;;;;;;5020238;28;20080;-69
2022/06/12 11:55:38;;;;;;;1.65;0.77;;;23.20;99.90;;;;;;5021002;28;20143;-67
2022/06/12 11:58:40;;;;;;;0.85;0.60;;;23.10;99.90;;;;;;5021194;28;20085;-72
2022/06/12 12:01:43;;;;;;;3.92;0.95;;;22.90;99.90;;;;;;5020823;28;20022;-71
2022/06/12 12:04:45;;;;;;;3.72;0.57;;;23.20;99.90;;;;;;5021134;28;20021;-69
2022/06/12 12:07:18;;;;;;;3.60;0.75;;;23.60;99.90;;;;;;5021403;28;20093;-69
2022/06/12 12:10:15;;;;;;;2.67;0.95;;;24.00;99.90;;;;;;5020064;28;20443;-67
2022/06/12 12:12:45;;;;;;;0.85;0.63;;;24.20;99.90;;;;;;5021539;28;20069;-70
2022/06/12 12:15:20;;;;;;;4.60;0.82;;;24.00;99.90;;;;;;5020580;28;20108;-69
2022/06/12 12:17:48;;;;;;;2.42;0.93;;;24.10;99.90;;;;;;5018042;28;20053;-69
2022/06/12 12:20:19;;;;;;;1.63;0.75;;;24.40;99.90;;;;;;5020525;28;20029;-67
2022/06/12 12:22:55;;;;;;;4.80;0.70;;;24.50;99.90;;;;;;5020565;28;20097;-70
2022/06/12 12:25:39;;;;;;;0.80;0.60;;;24.70;99.90;;;;;;5020204;28;20033;-73
2022/06/12 12:28:14;;;;;;;1.45;0.77;;;24.80;99.90;;;;;;5017801;28;20100;-74
2022/06/12 12:30:42;;;;;;;1.13;0.73;;;25.00;99.90;;;;;;5019663;28;20482;-73
2022/06/12 12:33:15;;;;;;;2.28;0.77;;;25.20;99.90;;;;;;5020754;28;20508;-73
2022/06/12 12:41:11;;;;;;;2.30;0.93;;;25.20;99.90;;;;;;5020528;28;20038;-73
2022/06/12 12:41:22;;;;;;;1.08;0.73;;;25.40;99.90;;;;;;5020703;28;20040;-68
2022/06/12 12:43:51;;;;;;;1.85;0.82;;;25.50;99.90;;;;;;5020292;28;20034;-75
2022/06/12 12:46:18;;;;;;;2.25;0.57;;;25.60;99.90;;;;;;5020346;28;20045;-69
2022/06/12 12:48:48;;;;;;;3.92;0.95;;;25.60;99.90;;;;;;5002537;28;20030;-69
2022/06/12 12:51:32;;;;;;;1.08;0.70;;;25.60;99.90;;;;;;5020170;28;20089;-74
2022/06/12 12:54:13;;;;;;;0.90;0.60;;;25.70;99.90;;;;;;5020395;28;20032;-68
2022/06/12 12:56:55;;;;;;;1.75;0.73;;;25.50;99.90;;;;;;5020382;28;20029;-68
2022/06/12 12:59:33;;;;;;;8.02;0.80;;;25.40;99.90;;;;;;5020090;28;20026;-68
2022/06/12 13:01:59;;;;;;;4.15;0.68;;;25.20;99.90;;;;;;5020255;28;20032;-70
2022/06/12 13:04:34;;;;;;;0.85;0.60;;;25.20;99.90;;;;;;5020853;28;20354;-72
2022/06/12 13:07:22;;;;;;;1.95;0.90;;;25.20;99.90;;;;;;5023551;28;20042;-71
2022/06/12 13:09:54;;;;;;;2.10;0.63;;;25.10;99.90;;;;;;5005286;28;20041;-70
2022/06/12 13:12:38;;;;;;;1.13;0.50;;;25.00;99.90;;;;;;5022933;28;20034;-70
2022/06/12 13:15:23;;;;;;;3.25;0.57;;;25.20;99.90;;;;;;5023001;28;20049;-70
2022/06/12 13:18:16;;;;;;;0.75;0.50;;;25.30;99.90;;;;;;5022801;28;20050;-68
2022/06/12 13:20:53;;;;;;;0.95;0.50;;;25.10;99.90;;;;;;5019265;28;20140;-73
2022/06/12 13:23:37;;;;;;;1.20;0.50;;;24.90;99.90;;;;;;5006166;28;20064;-68
2022/06/12 13:26:08;;;;;;;7.93;1.38;;;24.40;99.90;;;;;;5023763;28;20113;-72
2022/06/12 13:28:35;;;;;;;1.23;0.60;;;24.10;99.90;;;;;;5004649;28;20042;-70
2022/06/12 13:31:04;;;;;;;1.50;0.88;;;23.80;99.90;;;;;;5023929;28;20056;-71
2022/06/12 13:33:34;;;;;;;3.38;0.60;;;23.80;99.90;;;;;;5024044;28;20034;-67
2022/06/12 13:36:06;;;;;;;2.20;1.20;;;23.90;99.90;;;;;;5024292;28;20030;-72
2022/06/12 13:39:03;;;;;;;4.85;1.15;;;24.10;99.90;;;;;;5023918;28;20139;-72
2022/06/12 13:41:44;;;;;;;2.50;1.08;;;24.00;99.90;;;;;;5022988;28;20037;-73
2022/06/12 13:44:28;;;;;;;1.80;1.10;;;23.90;99.90;;;;;;5023913;28;20515;-71